sensor_id;sensor_type;location;lat;lon;timestamp;P1;durP1;ratioP1;P2;durP2;ratioP2
52450;SDS011;38366;53.176;6.540;2022-12-22T00:02:22;43.85;;;17.80;;
52450;SDS011;38366;53.176;6.540;2022-12-22T00:05:14;51.17;;;18.70;;
52450;SDS011;38366;53.176;6.540;2022-12-22T00:08:00;40.30;;;16.13;;
52450;SDS011;38366;53.176;6.540;2022-12-22T00:10:44;44.08;;;17.20;;
52450;SDS011;38366;53.176;6.540;2022-12-22T00:13:29;43.95;;;16.98;;
52450;SDS011;38366;53.176;6.540;2022-12-22T00:16:14;41.13;;;16.92;;
52450;SDS011;38366;53.176;6.540;2022-12-22T00:18:58;44.60;;;18.05;;
52450;SDS011;38366;53.176;6.540;2022-12-22T00:21:42;47.67;;;17.70;;
52450;SDS011;38366;53.176;6.540;2022-12-22T00:24:26;48.45;;;18.52;;
52450;SDS011;38366;53.176;6.540;2022-12-22T00:27:12;45.00;;;17.77;;
52450;SDS011;38366;53.176;6.540;2022-12-22T00:30:03;39.67;;;16.45;;
52450;SDS011;38366;53.176;6.540;2022-12-22T00:32:47;49.50;;;17.92;;
52450;SDS011;38366;53.176;6.540;2022-12-22T00:35:32;51.25;;;18.95;;
52450;SDS011;38366;53.176;6.540;2022-12-22T00:38:17;55.88;;;20.38;;
52450;SDS011;38366;53.176;6.540;2022-12-22T00:41:03;58.72;;;21.55;;
52450;SDS011;38366;53.176;6.540;2022-12-22T00:43:48;62.67;;;22.08;;
52450;SDS011;38366;53.176;6.540;2022-12-22T00:46:33;64.13;;;23.25;;
52450;SDS011;38366;53.176;6.540;2022-12-22T00:49:22;61.60;;;23.85;;
52450;SDS011;38366;53.176;6.540;2022-12-22T00:52:10;67.85;;;22.35;;
52450;SDS011;38366;53.176;6.540;2022-12-22T00:54:55;53.58;;;21.45;;
52450;SDS011;38366;53.176;6.540;2022-12-22T00:57:40;60.53;;;23.27;;
52450;SDS011;38366;53.176;6.540;2022-12-22T01:00:26;54.53;;;21.70;;
52450;SDS011;38366;53.176;6.540;2022-12-22T01:03:11;57.55;;;21.27;;
52450;SDS011;38366;53.176;6.540;2022-12-22T01:05:56;61.13;;;23.08;;
52450;SDS011;38366;53.176;6.540;2022-12-22T01:08:42;57.40;;;21.48;;
52450;SDS011;38366;53.176;6.540;2022-12-22T01:11:26;66.22;;;23.45;;
52450;SDS011;38366;53.176;6.540;2022-12-22T01:14:11;70.70;;;23.90;;
52450;SDS011;38366;53.176;6.540;2022-12-22T01:16:57;64.07;;;22.73;;
52450;SDS011;38366;53.176;6.540;2022-12-22T01:19:41;73.70;;;24.80;;
52450;SDS011;38366;53.176;6.540;2022-12-22T01:22:26;73.93;;;24.85;;
52450;SDS011;38366;53.176;6.540;2022-12-22T01:25:12;71.35;;;25.67;;
52450;SDS011;38366;53.176;6.540;2022-12-22T01:27:58;74.53;;;24.50;;
52450;SDS011;38366;53.176;6.540;2022-12-22T01:30:42;66.75;;;23.80;;
52450;SDS011;38366;53.176;6.540;2022-12-22T01:33:27;75.60;;;25.05;;
52450;SDS011;38366;53.176;6.540;2022-12-22T01:36:11;72.88;;;25.30;;
52450;SDS011;38366;53.176;6.540;2022-12-22T01:38:56;71.22;;;25.30;;
52450;SDS011;38366;53.176;6.540;2022-12-22T01:41:40;71.90;;;25.35;;
52450;SDS011;38366;53.176;6.540;2022-12-22T01:44:26;70.07;;;23.55;;
52450;SDS011;38366;53.176;6.540;2022-12-22T01:47:44;76.68;;;25.42;;
52450;SDS011;38366;53.176;6.540;2022-12-22T01:50:26;77.80;;;26.33;;
52450;SDS011;38366;53.176;6.540;2022-12-22T01:53:17;67.95;;;23.10;;
52450;SDS011;38366;53.176;6.540;2022-12-22T01:56:03;69.03;;;23.50;;
52450;SDS011;38366;53.176;6.540;2022-12-22T01:58:50;69.68;;;23.02;;
52450;SDS011;38366;53.176;6.540;2022-12-22T02:01:37;74.65;;;26.38;;
52450;SDS011;38366;53.176;6.540;2022-12-22T02:04:22;73.07;;;24.00;;
52450;SDS011;38366;53.176;6.540;2022-12-22T02:07:23;61.15;;;22.45;;
52450;SDS011;38366;53.176;6.540;2022-12-22T02:10:21;76.37;;;24.60;;
52450;SDS011;38366;53.176;6.540;2022-12-22T02:16:27;66.35;;;22.23;;
52450;SDS011;38366;53.176;6.540;2022-12-22T02:23:00;86.80;;;25.95;;
52450;SDS011;38366;53.176;6.540;2022-12-22T02:25:55;84.65;;;25.65;;
52450;SDS011;38366;53.176;6.540;2022-12-22T02:28:46;83.70;;;26.20;;
52450;SDS011;38366;53.176;6.540;2022-12-22T02:31:38;91.55;;;25.77;;
52450;SDS011;38366;53.176;6.540;2022-12-22T02:34:23;85.75;;;24.88;;
52450;SDS011;38366;53.176;6.540;2022-12-22T02:45:48;104.78;;;27.23;;
52450;SDS011;38366;53.176;6.540;2022-12-22T02:48:49;89.57;;;24.67;;
52450;SDS011;38366;53.176;6.540;2022-12-22T02:51:48;88.90;;;26.10;;
52450;SDS011;38366;53.176;6.540;2022-12-22T02:54:39;89.05;;;25.48;;
52450;SDS011;38366;53.176;6.540;2022-12-22T02:57:23;110.53;;;27.08;;
52450;SDS011;38366;53.176;6.540;2022-12-22T03:00:08;90.88;;;25.75;;
52450;SDS011;38366;53.176;6.540;2022-12-22T03:02:53;107.22;;;26.83;;
52450;SDS011;38366;53.176;6.540;2022-12-22T03:05:36;92.82;;;25.83;;
52450;SDS011;38366;53.176;6.540;2022-12-22T03:08:20;88.43;;;24.60;;
52450;SDS011;38366;53.176;6.540;2022-12-22T03:11:05;94.53;;;25.83;;
52450;SDS011;38366;53.176;6.540;2022-12-22T03:13:48;95.95;;;25.90;;
52450;SDS011;38366;53.176;6.540;2022-12-22T03:16:33;97.78;;;26.02;;
52450;SDS011;38366;53.176;6.540;2022-12-22T03:19:16;98.97;;;27.15;;
52450;SDS011;38366;53.176;6.540;2022-12-22T03:22:01;116.38;;;26.85;;
52450;SDS011;38366;53.176;6.540;2022-12-22T03:24:45;115.78;;;25.65;;
52450;SDS011;38366;53.176;6.540;2022-12-22T03:27:30;119.05;;;26.48;;
52450;SDS011;38366;53.176;6.540;2022-12-22T03:29:55;123.10;;;28.87;;
52450;SDS011;38366;53.176;6.540;2022-12-22T03:32:21;148.47;;;29.80;;
52450;SDS011;38366;53.176;6.540;2022-12-22T03:34:46;122.97;;;25.77;;
52450;SDS011;38366;53.176;6.540;2022-12-22T03:37:12;130.43;;;28.83;;
52450;SDS011;38366;53.176;6.540;2022-12-22T03:39:40;109.03;;;27.47;;
52450;SDS011;38366;53.176;6.540;2022-12-22T03:42:08;119.90;;;28.00;;
52450;SDS011;38366;53.176;6.540;2022-12-22T03:44:54;126.82;;;28.10;;
52450;SDS011;38366;53.176;6.540;2022-12-22T03:47:39;135.23;;;29.92;;
52450;SDS011;38366;53.176;6.540;2022-12-22T03:50:04;111.33;;;25.60;;
52450;SDS011;38366;53.176;6.540;2022-12-22T03:52:30;139.55;;;29.60;;
52450;SDS011;38366;53.176;6.540;2022-12-22T03:54:56;153.00;;;30.13;;
52450;SDS011;38366;53.176;6.540;2022-12-22T03:57:22;160.55;;;30.85;;
52450;SDS011;38366;53.176;6.540;2022-12-22T03:59:47;139.67;;;28.87;;
52450;SDS011;38366;53.176;6.540;2022-12-22T04:02:13;172.93;;;30.45;;
52450;SDS011;38366;53.176;6.540;2022-12-22T04:04:39;142.53;;;29.40;;
52450;SDS011;38366;53.176;6.540;2022-12-22T04:07:04;145.93;;;30.02;;
52450;SDS011;38366;53.176;6.540;2022-12-22T04:09:30;124.43;;;27.50;;
52450;SDS011;38366;53.176;6.540;2022-12-22T04:14:41;115.85;;;26.73;;
52450;SDS011;38366;53.176;6.540;2022-12-22T04:17:07;106.77;;;26.77;;
52450;SDS011;38366;53.176;6.540;2022-12-22T04:19:33;138.35;;;30.90;;
52450;SDS011;38366;53.176;6.540;2022-12-22T04:21:59;102.05;;;26.02;;
52450;SDS011;38366;53.176;6.540;2022-12-22T04:24:25;107.20;;;25.73;;
52450;SDS011;38366;53.176;6.540;2022-12-22T04:26:51;117.63;;;26.45;;
52450;SDS011;38366;53.176;6.540;2022-12-22T04:29:17;134.57;;;28.42;;
52450;SDS011;38366;53.176;6.540;2022-12-22T04:31:43;98.97;;;25.10;;
52450;SDS011;38366;53.176;6.540;2022-12-22T04:34:08;114.55;;;26.95;;
52450;SDS011;38366;53.176;6.540;2022-12-22T04:36:34;138.45;;;29.00;;
52450;SDS011;38366;53.176;6.540;2022-12-22T04:39:00;137.07;;;27.87;;
52450;SDS011;38366;53.176;6.540;2022-12-22T04:41:26;131.05;;;26.33;;
52450;SDS011;38366;53.176;6.540;2022-12-22T04:43:51;150.67;;;30.47;;
52450;SDS011;38366;53.176;6.540;2022-12-22T04:46:17;150.70;;;30.58;;
52450;SDS011;38366;53.176;6.540;2022-12-22T04:48:43;230.73;;;34.03;;
52450;SDS011;38366;53.176;6.540;2022-12-22T04:51:08;205.13;;;31.17;;
52450;SDS011;38366;53.176;6.540;2022-12-22T04:53:34;284.87;;;37.30;;
52450;SDS011;38366;53.176;6.540;2022-12-22T04:56:01;255.73;;;37.33;;
52450;SDS011;38366;53.176;6.540;2022-12-22T04:58:28;232.73;;;34.55;;
52450;SDS011;38366;53.176;6.540;2022-12-22T05:00:54;182.70;;;33.42;;
52450;SDS011;38366;53.176;6.540;2022-12-22T05:03:20;128.45;;;27.33;;
52450;SDS011;38366;53.176;6.540;2022-12-22T05:05:47;152.13;;;31.17;;
52450;SDS011;38366;53.176;6.540;2022-12-22T05:08:12;139.35;;;28.20;;
52450;SDS011;38366;53.176;6.540;2022-12-22T05:10:38;148.67;;;29.90;;
52450;SDS011;38366;53.176;6.540;2022-12-22T05:13:04;155.73;;;30.65;;
52450;SDS011;38366;53.176;6.540;2022-12-22T05:15:31;144.90;;;28.55;;
52450;SDS011;38366;53.176;6.540;2022-12-22T05:17:58;112.40;;;26.83;;
52450;SDS011;38366;53.176;6.540;2022-12-22T05:22:51;133.25;;;27.35;;
52450;SDS011;38366;53.176;6.540;2022-12-22T05:25:17;103.22;;;24.30;;
52450;SDS011;38366;53.176;6.540;2022-12-22T05:27:44;108.30;;;23.60;;
52450;SDS011;38366;53.176;6.540;2022-12-22T05:30:11;127.65;;;25.98;;
52450;SDS011;38366;53.176;6.540;2022-12-22T05:32:38;113.97;;;24.02;;
52450;SDS011;38366;53.176;6.540;2022-12-22T05:37:30;114.13;;;24.60;;
52450;SDS011;38366;53.176;6.540;2022-12-22T05:39:56;125.20;;;25.15;;
52450;SDS011;38366;53.176;6.540;2022-12-22T05:42:22;101.85;;;21.15;;
52450;SDS011;38366;53.176;6.540;2022-12-22T05:45:01;109.00;;;24.30;;
52450;SDS011;38366;53.176;6.540;2022-12-22T05:47:33;101.45;;;23.70;;
52450;SDS011;38366;53.176;6.540;2022-12-22T05:49:59;105.93;;;23.73;;
52450;SDS011;38366;53.176;6.540;2022-12-22T05:52:25;110.10;;;23.75;;
52450;SDS011;38366;53.176;6.540;2022-12-22T05:54:51;128.00;;;25.10;;
52450;SDS011;38366;53.176;6.540;2022-12-22T05:57:17;112.40;;;22.35;;
52450;SDS011;38366;53.176;6.540;2022-12-22T05:59:43;87.60;;;20.00;;
52450;SDS011;38366;53.176;6.540;2022-12-22T06:02:08;88.20;;;19.92;;
52450;SDS011;38366;53.176;6.540;2022-12-22T06:04:34;93.90;;;21.58;;
52450;SDS011;38366;53.176;6.540;2022-12-22T06:07:00;89.63;;;21.13;;
52450;SDS011;38366;53.176;6.540;2022-12-22T06:09:25;87.00;;;20.20;;
52450;SDS011;38366;53.176;6.540;2022-12-22T06:11:51;75.78;;;19.38;;
52450;SDS011;38366;53.176;6.540;2022-12-22T06:14:17;87.13;;;20.80;;
52450;SDS011;38366;53.176;6.540;2022-12-22T06:16:42;95.40;;;19.87;;
52450;SDS011;38366;53.176;6.540;2022-12-22T06:19:08;79.60;;;19.42;;
52450;SDS011;38366;53.176;6.540;2022-12-22T06:21:34;73.23;;;18.47;;
52450;SDS011;38366;53.176;6.540;2022-12-22T06:23:59;73.70;;;20.10;;
52450;SDS011;38366;53.176;6.540;2022-12-22T06:26:25;84.53;;;19.15;;
52450;SDS011;38366;53.176;6.540;2022-12-22T06:28:51;75.47;;;18.47;;
52450;SDS011;38366;53.176;6.540;2022-12-22T06:31:17;88.72;;;18.38;;
52450;SDS011;38366;53.176;6.540;2022-12-22T06:33:42;70.80;;;19.35;;
52450;SDS011;38366;53.176;6.540;2022-12-22T06:36:09;75.85;;;19.25;;
52450;SDS011;38366;53.176;6.540;2022-12-22T06:38:35;77.03;;;20.00;;
52450;SDS011;38366;53.176;6.540;2022-12-22T06:41:01;75.47;;;19.42;;
52450;SDS011;38366;53.176;6.540;2022-12-22T06:43:26;76.77;;;18.67;;
52450;SDS011;38366;53.176;6.540;2022-12-22T06:45:52;105.38;;;22.08;;
52450;SDS011;38366;53.176;6.540;2022-12-22T06:48:18;85.38;;;18.85;;
52450;SDS011;38366;53.176;6.540;2022-12-22T06:50:44;77.95;;;18.13;;
52450;SDS011;38366;53.176;6.540;2022-12-22T06:53:10;136.70;;;20.58;;
52450;SDS011;38366;53.176;6.540;2022-12-22T06:55:36;137.85;;;22.35;;
52450;SDS011;38366;53.176;6.540;2022-12-22T06:58:02;122.65;;;20.60;;
52450;SDS011;38366;53.176;6.540;2022-12-22T07:02:54;495.73;;;42.25;;
52450;SDS011;38366;53.176;6.540;2022-12-22T07:05:20;412.17;;;35.43;;
52450;SDS011;38366;53.176;6.540;2022-12-22T07:07:47;111.90;;;22.17;;
52450;SDS011;38366;53.176;6.540;2022-12-22T07:10:13;88.72;;;20.83;;
52450;SDS011;38366;53.176;6.540;2022-12-22T07:12:39;91.25;;;19.35;;
52450;SDS011;38366;53.176;6.540;2022-12-22T07:15:05;131.90;;;21.50;;
52450;SDS011;38366;53.176;6.540;2022-12-22T07:17:32;163.30;;;24.10;;
52450;SDS011;38366;53.176;6.540;2022-12-22T07:19:58;147.65;;;23.23;;
52450;SDS011;38366;53.176;6.540;2022-12-22T07:22:23;85.15;;;19.00;;
52450;SDS011;38366;53.176;6.540;2022-12-22T07:24:49;83.40;;;18.07;;
52450;SDS011;38366;53.176;6.540;2022-12-22T07:27:15;85.10;;;18.87;;
52450;SDS011;38366;53.176;6.540;2022-12-22T07:29:41;83.75;;;18.83;;
52450;SDS011;38366;53.176;6.540;2022-12-22T07:32:06;77.43;;;17.15;;
52450;SDS011;38366;53.176;6.540;2022-12-22T07:34:32;68.18;;;17.80;;
52450;SDS011;38366;53.176;6.540;2022-12-22T07:36:58;73.35;;;16.50;;
52450;SDS011;38366;53.176;6.540;2022-12-22T07:39:24;75.73;;;16.97;;
52450;SDS011;38366;53.176;6.540;2022-12-22T07:41:49;67.90;;;15.77;;
52450;SDS011;38366;53.176;6.540;2022-12-22T07:44:33;66.68;;;14.80;;
52450;SDS011;38366;53.176;6.540;2022-12-22T07:46:59;56.53;;;14.93;;
52450;SDS011;38366;53.176;6.540;2022-12-22T07:49:25;50.20;;;13.85;;
52450;SDS011;38366;53.176;6.540;2022-12-22T07:52:09;58.60;;;13.50;;
52450;SDS011;38366;53.176;6.540;2022-12-22T07:54:35;54.20;;;13.23;;
52450;SDS011;38366;53.176;6.540;2022-12-22T07:57:01;51.47;;;13.45;;
52450;SDS011;38366;53.176;6.540;2022-12-22T07:59:27;58.83;;;13.73;;
52450;SDS011;38366;53.176;6.540;2022-12-22T08:01:52;62.03;;;13.80;;
52450;SDS011;38366;53.176;6.540;2022-12-22T08:04:18;57.38;;;13.93;;
52450;SDS011;38366;53.176;6.540;2022-12-22T08:06:44;48.70;;;12.32;;
52450;SDS011;38366;53.176;6.540;2022-12-22T08:09:12;54.42;;;14.05;;
52450;SDS011;38366;53.176;6.540;2022-12-22T08:11:39;59.50;;;17.70;;
52450;SDS011;38366;53.176;6.540;2022-12-22T08:14:05;64.10;;;16.50;;
52450;SDS011;38366;53.176;6.540;2022-12-22T08:16:31;55.97;;;14.88;;
52450;SDS011;38366;53.176;6.540;2022-12-22T08:18:57;56.40;;;15.70;;
52450;SDS011;38366;53.176;6.540;2022-12-22T08:21:22;51.60;;;14.07;;
52450;SDS011;38366;53.176;6.540;2022-12-22T08:23:51;49.17;;;12.80;;
52450;SDS011;38366;53.176;6.540;2022-12-22T08:26:20;53.40;;;14.23;;
52450;SDS011;38366;53.176;6.540;2022-12-22T08:28:56;44.20;;;11.40;;
52450;SDS011;38366;53.176;6.540;2022-12-22T08:31:27;48.97;;;12.43;;
52450;SDS011;38366;53.176;6.540;2022-12-22T08:33:54;52.75;;;12.20;;
52450;SDS011;38366;53.176;6.540;2022-12-22T08:36:22;61.63;;;12.93;;
52450;SDS011;38366;53.176;6.540;2022-12-22T08:38:48;59.63;;;12.95;;
52450;SDS011;38366;53.176;6.540;2022-12-22T08:41:15;63.30;;;13.27;;
52450;SDS011;38366;53.176;6.540;2022-12-22T08:44:01;61.60;;;12.50;;
52450;SDS011;38366;53.176;6.540;2022-12-22T08:46:27;95.57;;;13.43;;
52450;SDS011;38366;53.176;6.540;2022-12-22T08:48:52;40.22;;;10.65;;
52450;SDS011;38366;53.176;6.540;2022-12-22T08:51:18;48.30;;;9.97;;
52450;SDS011;38366;53.176;6.540;2022-12-22T08:53:44;43.35;;;10.10;;
52450;SDS011;38366;53.176;6.540;2022-12-22T08:56:09;53.67;;;11.32;;
52450;SDS011;38366;53.176;6.540;2022-12-22T08:58:35;44.28;;;10.65;;
52450;SDS011;38366;53.176;6.540;2022-12-22T09:01:01;61.53;;;12.03;;
52450;SDS011;38366;53.176;6.540;2022-12-22T09:03:26;46.33;;;10.80;;
52450;SDS011;38366;53.176;6.540;2022-12-22T09:05:58;73.83;;;12.80;;
52450;SDS011;38366;53.176;6.540;2022-12-22T09:08:27;57.53;;;12.13;;
52450;SDS011;38366;53.176;6.540;2022-12-22T09:10:53;43.63;;;10.65;;
52450;SDS011;38366;53.176;6.540;2022-12-22T09:13:19;39.53;;;10.52;;
52450;SDS011;38366;53.176;6.540;2022-12-22T09:15:44;40.88;;;9.77;;
52450;SDS011;38366;53.176;6.540;2022-12-22T09:18:10;33.83;;;10.83;;
52450;SDS011;38366;53.176;6.540;2022-12-22T09:20:36;40.92;;;10.70;;
52450;SDS011;38366;53.176;6.540;2022-12-22T09:23:02;31.37;;;9.73;;
52450;SDS011;38366;53.176;6.540;2022-12-22T09:25:27;34.23;;;8.97;;
52450;SDS011;38366;53.176;6.540;2022-12-22T09:27:53;31.20;;;9.18;;
52450;SDS011;38366;53.176;6.540;2022-12-22T09:30:19;36.33;;;9.50;;
52450;SDS011;38366;53.176;6.540;2022-12-22T09:32:45;38.17;;;9.90;;
52450;SDS011;38366;53.176;6.540;2022-12-22T09:35:10;33.40;;;9.18;;
52450;SDS011;38366;53.176;6.540;2022-12-22T09:37:36;37.38;;;10.02;;
52450;SDS011;38366;53.176;6.540;2022-12-22T09:40:02;35.10;;;9.50;;
52450;SDS011;38366;53.176;6.540;2022-12-22T09:42:28;26.05;;;8.82;;
52450;SDS011;38366;53.176;6.540;2022-12-22T09:44:58;35.58;;;9.35;;
52450;SDS011;38366;53.176;6.540;2022-12-22T09:47:32;41.50;;;10.48;;
52450;SDS011;38366;53.176;6.540;2022-12-22T09:50:02;27.98;;;8.88;;
52450;SDS011;38366;53.176;6.540;2022-12-22T09:54:58;27.07;;;8.03;;
52450;SDS011;38366;53.176;6.540;2022-12-22T09:57:26;24.50;;;8.18;;
52450;SDS011;38366;53.176;6.540;2022-12-22T09:59:55;19.88;;;7.22;;
52450;SDS011;38366;53.176;6.540;2022-12-22T10:02:39;22.52;;;7.57;;
52450;SDS011;38366;53.176;6.540;2022-12-22T10:07:52;16.17;;;5.55;;
52450;SDS011;38366;53.176;6.540;2022-12-22T10:10:24;23.63;;;7.10;;
52450;SDS011;38366;53.176;6.540;2022-12-22T10:13:00;18.75;;;6.40;;
52450;SDS011;38366;53.176;6.540;2022-12-22T10:15:32;17.17;;;6.28;;
52450;SDS011;38366;53.176;6.540;2022-12-22T10:18:10;13.88;;;5.95;;
52450;SDS011;38366;53.176;6.540;2022-12-22T10:21:05;15.35;;;6.82;;
52450;SDS011;38366;53.176;6.540;2022-12-22T10:23:37;20.50;;;7.10;;
52450;SDS011;38366;53.176;6.540;2022-12-22T10:26:27;17.58;;;6.65;;
52450;SDS011;38366;53.176;6.540;2022-12-22T10:31:29;17.02;;;7.25;;
52450;SDS011;38366;53.176;6.540;2022-12-22T10:34:08;15.82;;;6.35;;
52450;SDS011;38366;53.176;6.540;2022-12-22T10:36:39;16.30;;;6.38;;
52450;SDS011;38366;53.176;6.540;2022-12-22T10:39:11;20.60;;;6.88;;
52450;SDS011;38366;53.176;6.540;2022-12-22T10:41:46;17.88;;;6.65;;
52450;SDS011;38366;53.176;6.540;2022-12-22T10:46:46;16.50;;;6.57;;
52450;SDS011;38366;53.176;6.540;2022-12-22T10:49:21;18.60;;;6.50;;
52450;SDS011;38366;53.176;6.540;2022-12-22T10:51:54;16.33;;;6.13;;
52450;SDS011;38366;53.176;6.540;2022-12-22T10:54:33;10.77;;;5.15;;
52450;SDS011;38366;53.176;6.540;2022-12-22T10:59:47;13.18;;;5.40;;
52450;SDS011;38366;53.176;6.540;2022-12-22T11:04:53;17.33;;;5.72;;
52450;SDS011;38366;53.176;6.540;2022-12-22T11:07:25;10.68;;;4.15;;
52450;SDS011;38366;53.176;6.540;2022-12-22T11:09:52;11.38;;;4.90;;
52450;SDS011;38366;53.176;6.540;2022-12-22T11:18:05;8.45;;;3.70;;
52450;SDS011;38366;53.176;6.540;2022-12-22T11:23:52;7.93;;;3.75;;
52450;SDS011;38366;53.176;6.540;2022-12-22T11:26:34;10.77;;;3.47;;
52450;SDS011;38366;53.176;6.540;2022-12-22T11:35:16;11.45;;;3.67;;
52450;SDS011;38366;53.176;6.540;2022-12-22T11:38:23;10.35;;;3.72;;
52450;SDS011;38366;53.176;6.540;2022-12-22T11:49:23;8.68;;;3.63;;
52450;SDS011;38366;53.176;6.540;2022-12-22T11:55:03;7.00;;;3.38;;
52450;SDS011;38366;53.176;6.540;2022-12-22T12:00:42;7.45;;;3.08;;
52450;SDS011;38366;53.176;6.540;2022-12-22T12:03:30;8.38;;;3.47;;
52450;SDS011;38366;53.176;6.540;2022-12-22T12:20:31;7.30;;;3.05;;
52450;SDS011;38366;53.176;6.540;2022-12-22T12:26:03;9.02;;;2.83;;
52450;SDS011;38366;53.176;6.540;2022-12-22T12:28:43;9.07;;;2.95;;
52450;SDS011;38366;53.176;6.540;2022-12-22T12:31:16;7.93;;;2.58;;
52450;SDS011;38366;53.176;6.540;2022-12-22T12:33:45;11.18;;;2.95;;
52450;SDS011;38366;53.176;6.540;2022-12-22T12:39:01;9.60;;;2.95;;
52450;SDS011;38366;53.176;6.540;2022-12-22T12:44:22;7.28;;;2.80;;
52450;SDS011;38366;53.176;6.540;2022-12-22T12:52:04;7.63;;;2.78;;
52450;SDS011;38366;53.176;6.540;2022-12-22T13:05:32;11.52;;;2.55;;
52450;SDS011;38366;53.176;6.540;2022-12-22T13:16:19;10.98;;;2.50;;
52450;SDS011;38366;53.176;6.540;2022-12-22T13:21:55;11.27;;;2.55;;
52450;SDS011;38366;53.176;6.540;2022-12-22T13:24:04;9.65;;;2.60;;
52450;SDS011;38366;53.176;6.540;2022-12-22T13:26:50;8.48;;;2.60;;
52450;SDS011;38366;53.176;6.540;2022-12-22T13:42:36;9.75;;;2.22;;
52450;SDS011;38366;53.176;6.540;2022-12-22T13:45:05;7.63;;;2.00;;
52450;SDS011;38366;53.176;6.540;2022-12-22T13:47:39;7.10;;;2.30;;
52450;SDS011;38366;53.176;6.540;2022-12-22T13:50:07;9.65;;;3.83;;
52450;SDS011;38366;53.176;6.540;2022-12-22T13:52:44;9.05;;;2.30;;
52450;SDS011;38366;53.176;6.540;2022-12-22T13:55:22;9.68;;;2.45;;
52450;SDS011;38366;53.176;6.540;2022-12-22T13:57:51;10.15;;;3.13;;
52450;SDS011;38366;53.176;6.540;2022-12-22T14:00:22;8.18;;;2.97;;
52450;SDS011;38366;53.176;6.540;2022-12-22T14:02:50;8.98;;;2.90;;
52450;SDS011;38366;53.176;6.540;2022-12-22T14:05:16;8.07;;;2.70;;
52450;SDS011;38366;53.176;6.540;2022-12-22T14:10:29;12.77;;;2.72;;
52450;SDS011;38366;53.176;6.540;2022-12-22T14:13:05;7.93;;;2.83;;
52450;SDS011;38366;53.176;6.540;2022-12-22T14:15:36;10.57;;;3.05;;
52450;SDS011;38366;53.176;6.540;2022-12-22T14:18:01;13.15;;;2.90;;
52450;SDS011;38366;53.176;6.540;2022-12-22T14:20:30;8.27;;;2.17;;
52450;SDS011;38366;53.176;6.540;2022-12-22T14:23:01;9.32;;;2.20;;
52450;SDS011;38366;53.176;6.540;2022-12-22T14:25:35;11.00;;;2.30;;
52450;SDS011;38366;53.176;6.540;2022-12-22T14:28:04;10.50;;;2.88;;
52450;SDS011;38366;53.176;6.540;2022-12-22T14:30:36;10.20;;;2.28;;
52450;SDS011;38366;53.176;6.540;2022-12-22T14:39:08;5.53;;;1.67;;
52450;SDS011;38366;53.176;6.540;2022-12-22T14:41:47;4.15;;;1.30;;
52450;SDS011;38366;53.176;6.540;2022-12-22T14:44:18;8.90;;;1.55;;
52450;SDS011;38366;53.176;6.540;2022-12-22T14:47:01;8.77;;;1.58;;
52450;SDS011;38366;53.176;6.540;2022-12-22T14:52:22;7.28;;;1.48;;
52450;SDS011;38366;53.176;6.540;2022-12-22T14:55:20;5.25;;;1.38;;
52450;SDS011;38366;53.176;6.540;2022-12-22T14:57:58;5.15;;;1.40;;
52450;SDS011;38366;53.176;6.540;2022-12-22T15:03:03;4.75;;;1.45;;
52450;SDS011;38366;53.176;6.540;2022-12-22T15:05:32;4.72;;;1.73;;
52450;SDS011;38366;53.176;6.540;2022-12-22T15:07:59;6.28;;;1.73;;
52450;SDS011;38366;53.176;6.540;2022-12-22T15:10:26;5.00;;;1.45;;
52450;SDS011;38366;53.176;6.540;2022-12-22T15:12:58;7.78;;;1.55;;
52450;SDS011;38366;53.176;6.540;2022-12-22T15:15:30;5.38;;;1.40;;
52450;SDS011;38366;53.176;6.540;2022-12-22T15:17:58;8.00;;;1.73;;
52450;SDS011;38366;53.176;6.540;2022-12-22T15:20:24;8.45;;;1.38;;
52450;SDS011;38366;53.176;6.540;2022-12-22T15:22:52;6.13;;;1.38;;
52450;SDS011;38366;53.176;6.540;2022-12-22T15:25:21;8.63;;;1.88;;
52450;SDS011;38366;53.176;6.540;2022-12-22T15:27:48;8.68;;;2.13;;
52450;SDS011;38366;53.176;6.540;2022-12-22T15:30:18;4.63;;;1.80;;
52450;SDS011;38366;53.176;6.540;2022-12-22T15:32:45;6.82;;;2.00;;
52450;SDS011;38366;53.176;6.540;2022-12-22T15:35:30;2.70;;;1.73;;
52450;SDS011;38366;53.176;6.540;2022-12-22T15:37:58;6.07;;;2.58;;
52450;SDS011;38366;53.176;6.540;2022-12-22T15:40:25;10.90;;;2.60;;
52450;SDS011;38366;53.176;6.540;2022-12-22T15:42:52;7.15;;;3.13;;
52450;SDS011;38366;53.176;6.540;2022-12-22T15:45:19;8.35;;;3.38;;
52450;SDS011;38366;53.176;6.540;2022-12-22T15:47:48;10.77;;;3.20;;
52450;SDS011;38366;53.176;6.540;2022-12-22T15:50:21;7.80;;;2.47;;
52450;SDS011;38366;53.176;6.540;2022-12-22T15:52:54;8.80;;;2.40;;
52450;SDS011;38366;53.176;6.540;2022-12-22T15:55:22;8.65;;;2.88;;
52450;SDS011;38366;53.176;6.540;2022-12-22T15:57:49;9.90;;;3.33;;
52450;SDS011;38366;53.176;6.540;2022-12-22T16:00:17;13.13;;;3.10;;
52450;SDS011;38366;53.176;6.540;2022-12-22T16:02:44;6.45;;;2.65;;
52450;SDS011;38366;53.176;6.540;2022-12-22T16:05:10;6.78;;;2.65;;
52450;SDS011;38366;53.176;6.540;2022-12-22T16:07:36;5.35;;;2.63;;
52450;SDS011;38366;53.176;6.540;2022-12-22T16:10:04;9.38;;;3.25;;
52450;SDS011;38366;53.176;6.540;2022-12-22T16:12:32;8.35;;;3.05;;
52450;SDS011;38366;53.176;6.540;2022-12-22T16:17:26;8.13;;;2.87;;
52450;SDS011;38366;53.176;6.540;2022-12-22T16:19:52;7.05;;;2.85;;
52450;SDS011;38366;53.176;6.540;2022-12-22T16:22:31;11.68;;;3.85;;
52450;SDS011;38366;53.176;6.540;2022-12-22T16:24:58;9.30;;;2.97;;
52450;SDS011;38366;53.176;6.540;2022-12-22T16:27:28;9.00;;;3.42;;
52450;SDS011;38366;53.176;6.540;2022-12-22T16:29:54;8.40;;;4.10;;
52450;SDS011;38366;53.176;6.540;2022-12-22T16:39:57;10.13;;;4.50;;
52450;SDS011;38366;53.176;6.540;2022-12-22T16:42:23;10.75;;;4.47;;
52450;SDS011;38366;53.176;6.540;2022-12-22T16:44:49;8.20;;;4.77;;
52450;SDS011;38366;53.176;6.540;2022-12-22T16:47:19;14.63;;;5.55;;
52450;SDS011;38366;53.176;6.540;2022-12-22T16:49:47;8.30;;;5.45;;
52450;SDS011;38366;53.176;6.540;2022-12-22T16:52:28;12.80;;;6.03;;
52450;SDS011;38366;53.176;6.540;2022-12-22T16:55:00;11.43;;;6.55;;
52450;SDS011;38366;53.176;6.540;2022-12-22T16:57:26;15.97;;;8.00;;
52450;SDS011;38366;53.176;6.540;2022-12-22T16:59:52;17.17;;;9.93;;
52450;SDS011;38366;53.176;6.540;2022-12-22T17:02:25;16.60;;;8.77;;
52450;SDS011;38366;53.176;6.540;2022-12-22T17:04:53;18.50;;;9.40;;
52450;SDS011;38366;53.176;6.540;2022-12-22T17:07:21;17.38;;;9.48;;
52450;SDS011;38366;53.176;6.540;2022-12-22T17:09:48;15.20;;;9.63;;
52450;SDS011;38366;53.176;6.540;2022-12-22T17:12:19;17.20;;;10.25;;
52450;SDS011;38366;53.176;6.540;2022-12-22T17:14:48;28.92;;;11.27;;
52450;SDS011;38366;53.176;6.540;2022-12-22T17:19:41;21.55;;;10.93;;
52450;SDS011;38366;53.176;6.540;2022-12-22T17:24:43;26.80;;;12.35;;
52450;SDS011;38366;53.176;6.540;2022-12-22T17:27:08;23.43;;;13.10;;
52450;SDS011;38366;53.176;6.540;2022-12-22T17:29:36;22.42;;;10.93;;
52450;SDS011;38366;53.176;6.540;2022-12-22T17:32:02;24.63;;;12.55;;
52450;SDS011;38366;53.176;6.540;2022-12-22T17:34:28;25.70;;;12.48;;
52450;SDS011;38366;53.176;6.540;2022-12-22T17:36:55;22.83;;;12.20;;
52450;SDS011;38366;53.176;6.540;2022-12-22T17:39:23;21.65;;;12.77;;
52450;SDS011;38366;53.176;6.540;2022-12-22T17:44:16;23.23;;;11.68;;